Time;durP1;ratioP1;P1;durP2;ratioP2;P2;SDS_P1;SDS_P2;PMS_P1;PMS_P2;Temp;Humidity;BMP_temperature;BMP_pressure;BME280_temperature;BME280_humidity;BME280_pressure;Samples;Min_cycle;Max_cycle;Signal;HPM_P1;HPM_P2
2023/06/10 00:01:48;;;;;;;;;;;;;;;16.45;56.68;100249.31;5056172;28;1144;-50
2023/06/10 00:04:16;;;;;;;;;;;;;;;17.51;56.72;100250.56;5055839;28;1159;-51
2023/06/10 00:06:43;;;;;;;;;;;;;;;16.70;57.81;100246.34;5056223;28;1063;-51
2023/06/10 00:09:10;;;;;;;;;;;;;;;16.46;57.27;100248.22;5056025;28;1180;-51
2023/06/10 00:11:36;;;;;;;;;;;;;;;16.27;57.15;100248.03;5055684;28;920;-50
2023/06/10 00:14:01;;;;;;;;;;;;;;;16.10;56.86;100242.94;5055703;28;1902;-54
2023/06/10 00:16:27;;;;;;;;;;;;;;;16.14;56.31;100241.28;5056206;28;1187;-52
2023/06/10 00:18:55;;;;;;;;;;;;;;;16.02;56.14;100245.19;5055900;28;1151;-50
2023/06/10 00:21:21;;;;;;;;;;;;;;;15.96;56.13;100240.81;5056024;28;1068;-56
2023/06/10 00:23:46;;;;;;;;;;;;;;;15.84;55.91;100245.84;5055576;28;1019;-55
2023/06/10 00:26:12;;;;;;;;;;;;;;;15.87;55.89;100242.53;5056001;28;1083;-54
2023/06/10 00:28:39;;;;;;;;;;;;;;;15.82;55.87;100240.63;5056332;28;1198;-57
2023/06/10 00:31:05;;;;;;;;;;;;;;;17.05;57.04;100238.94;5056260;28;1203;-56
2023/06/10 00:33:31;;;;;;;;;;;;;;;16.88;57.51;100241.28;5057013;28;1072;-56
2023/06/10 00:35:56;;;;;;;;;;;;;;;16.43;57.67;100238.63;5059437;28;1984;-53
2023/06/10 00:38:22;;;;;;;;;;;;;;;16.28;57.17;100236.78;5060147;28;1128;-54
2023/06/10 00:40:48;;;;;;;;;;;;;;;16.18;56.46;100242.34;5059707;28;1043;-54
2023/06/10 00:43:13;;;;;;;;;;;;;;;16.08;56.57;100238.56;5059769;28;1100;-56
2023/06/10 00:45:39;;;;;;;;;;;;;;;16.01;56.31;100254.50;5059918;28;1139;-53
2023/06/10 00:48:05;;;;;;;;;;;;;;;15.97;55.84;100236.97;5059372;28;1244;-55
2023/06/10 00:50:31;;;;;;;;;;;;;;;15.92;55.74;100239.72;5025367;28;1335;-56
2023/06/10 00:52:56;;;;;;;;;;;;;;;15.94;56.29;100237.53;5059793;28;1045;-54
2023/06/10 00:55:23;;;;;;;;;;;;;;;17.26;56.99;100238.72;5041423;28;1983;-56
2023/06/10 00:57:49;;;;;;;;;;;;;;;16.79;57.24;100240.25;5042258;28;1104;-54
2023/06/10 01:00:16;;;;;;;;;;;;;;;16.38;57.45;100247.72;5041817;28;842;-52
2023/06/10 01:02:41;;;;;;;;;;;;;;;16.24;56.96;100246.69;5041463;28;1237;-53
2023/06/10 01:05:07;;;;;;;;;;;;;;;16.15;56.68;100249.22;5059297;28;1040;-53
2023/06/10 01:07:37;;;;;;;;;;;;;;;16.05;56.27;100239.13;5025144;28;1219;-56
2023/06/10 01:10:15;;;;;;;;;;;;;;;16.03;55.97;100246.84;5041476;28;1558;-55
2023/06/10 01:12:40;;;;;;;;;;;;;;;15.94;56.05;100231.25;5041579;28;1207;-52
2023/06/10 01:15:07;;;;;;;;;;;;;;;15.89;55.76;100238.41;5059152;28;1898;-55
2023/06/10 01:17:33;;;;;;;;;;;;;;;15.80;55.70;100234.59;5059090;28;1004;-50
2023/06/10 01:19:59;;;;;;;;;;;;;;;16.03;56.41;100235.84;5059467;28;1067;-50
2023/06/10 01:22:28;;;;;;;;;;;;;;;17.31;56.69;100235.13;5059137;28;1052;-51
2023/06/10 01:24:57;;;;;;;;;;;;;;;16.83;57.50;100235.81;5058565;28;914;-53
2023/06/10 01:27:23;;;;;;;;;;;;;;;16.47;57.27;100230.66;5058867;28;1076;-52
2023/06/10 01:29:55;;;;;;;;;;;;;;;16.30;57.17;100229.09;5041038;28;1178;-53
2023/06/10 01:32:40;;;;;;;;;;;;;;;16.17;56.62;100229.72;5040965;28;1203;-51
2023/06/10 01:35:06;;;;;;;;;;;;;;;16.06;56.38;100232.53;5040727;28;1919;-53
2023/06/10 01:37:32;;;;;;;;;;;;;;;15.98;56.20;100216.69;5041706;28;1044;-50
2023/06/10 01:39:58;;;;;;;;;;;;;;;15.95;55.81;100225.47;5040754;28;1151;-56
2023/06/10 01:42:24;;;;;;;;;;;;;;;15.88;55.76;100227.72;5041083;28;1223;-54
2023/06/10 01:44:50;;;;;;;;;;;;;;;15.85;55.53;100223.63;5057794;28;1056;-54
2023/06/10 01:47:16;;;;;;;;;;;;;;;16.56;57.07;100220.66;5058332;28;1201;-54
2023/06/10 01:49:42;;;;;;;;;;;;;;;17.43;56.87;100230.00;5058671;28;1040;-55
2023/06/10 01:52:07;;;;;;;;;;;;;;;16.69;57.54;100227.41;5058741;28;1036;-55
2023/06/10 01:54:34;;;;;;;;;;;;;;;16.38;57.26;100225.75;5040489;28;1902;-52
2023/06/10 01:57:01;;;;;;;;;;;;;;;16.33;56.54;100228.53;5040801;28;1041;-54
2023/06/10 01:59:26;;;;;;;;;;;;;;;16.21;56.19;100228.88;5040070;28;1181;-54
2023/06/10 02:01:52;;;;;;;;;;;;;;;16.13;55.96;100221.25;5058157;28;1110;-52
2023/06/10 02:04:18;;;;;;;;;;;;;;;16.02;56.11;100227.88;5058237;28;1088;-51
2023/06/10 02:06:43;;;;;;;;;;;;;;;15.95;55.82;100225.47;5058212;28;1202;-55
2023/06/10 02:09:09;;;;;;;;;;;;;;;15.91;55.86;100224.41;5058118;28;1060;-53
2023/06/10 02:11:35;;;;;;;;;;;;;;;15.94;56.07;100220.28;5058097;28;992;-56
2023/06/10 02:14:00;;;;;;;;;;;;;;;17.20;57.04;100231.66;5040283;28;2020;-57
2023/06/10 02:16:26;;;;;;;;;;;;;;;16.73;57.69;100226.59;5057842;28;1115;-48
2023/06/10 02:18:52;;;;;;;;;;;;;;;16.41;57.24;100225.19;5057903;28;1064;-53
2023/06/10 02:21:17;;;;;;;;;;;;;;;16.23;56.96;100228.63;5058339;28;1111;-53
2023/06/10 02:23:43;;;;;;;;;;;;;;;16.14;56.73;100222.88;5057619;28;1064;-53
2023/06/10 02:26:08;;;;;;;;;;;;;;;16.09;56.06;100225.69;5058032;28;1130;-55
2023/06/10 02:28:34;;;;;;;;;;;;;;;15.96;56.03;100229.84;5039617;28;1084;-52
2023/06/10 02:31:00;;;;;;;;;;;;;;;15.93;55.75;100232.34;5049136;28;1239;-54
2023/06/10 02:33:27;;;;;;;;;;;;;;;15.82;55.86;100237.06;5053437;28;1097;-54
2023/06/10 02:35:53;;;;;;;;;;;;;;;15.78;56.01;100223.06;5039629;28;1910;-53
2023/06/10 02:38:19;;;;;;;;;;;;;;;17.00;57.15;100224.41;5039468;28;1307;-53
2023/06/10 02:40:45;;;;;;;;;;;;;;;17.14;57.09;100224.56;5039587;28;1020;-54
2023/06/10 02:43:12;;;;;;;;;;;;;;;16.55;57.59;100222.59;5039799;28;1197;-52
2023/06/10 02:45:37;;;;;;;;;;;;;;;16.37;57.33;100223.31;5039574;28;1371;-54
2023/06/10 02:48:03;;;;;;;;;;;;;;;16.19;56.92;100222.84;5035744;28;1151;-54
2023/06/10 02:50:31;;;;;;;;;;;;;;;16.13;56.37;100224.00;5036115;28;1646;-56
2023/06/10 02:53:08;;;;;;;;;;;;;;;16.05;56.37;100233.63;5036089;28;1136;-54
2023/06/10 02:55:36;;;;;;;;;;;;;;;15.96;56.20;100235.31;5025448;28;1974;-55
2023/06/10 02:58:05;;;;;;;;;;;;;;;15.91;55.77;100233.44;5032995;28;1341;-54
2023/06/10 03:00:33;;;;;;;;;;;;;;;15.83;55.68;100234.03;5035745;28;1271;-55
2023/06/10 03:03:02;;;;;;;;;;;;;;;15.79;55.77;100234.84;5036202;28;1259;-54
2023/06/10 03:05:32;;;;;;;;;;;;;;;15.95;56.25;100233.72;5036163;28;1433;-53
2023/06/10 03:08:00;;;;;;;;;;;;;;;17.28;56.77;100239.28;5035812;28;1332;-56
2023/06/10 03:10:27;;;;;;;;;;;;;;;16.80;57.54;100231.72;5036045;28;1165;-55
2023/06/10 03:12:52;;;;;;;;;;;;;;;16.46;57.36;100232.53;5037007;28;1016;-54
2023/06/10 03:15:20;;;;;;;;;;;;;;;16.28;56.83;100231.31;5035316;28;1967;-57
2023/06/10 03:17:47;;;;;;;;;;;;;;;16.13;56.61;100229.50;5035627;28;2093;-54
2023/06/10 03:20:15;;;;;;;;;;;;;;;16.07;56.15;100236.09;5036200;28;1098;-51
2023/06/10 03:22:42;;;;;;;;;;;;;;;15.99;56.09;100234.78;5022313;28;1200;-51
2023/06/10 03:25:13;;;;;;;;;;;;;;;15.93;55.80;100235.91;5035497;28;1307;-50
2023/06/10 03:27:42;;;;;;;;;;;;;;;15.88;55.76;100227.72;5035837;28;1162;-52
2023/06/10 03:30:08;;;;;;;;;;;;;;;15.90;55.35;100239.22;5047416;28;1408;-53
2023/06/10 03:32:36;;;;;;;;;;;;;;;15.77;55.66;100239.78;5036166;28;1288;-52
2023/06/10 03:35:03;;;;;;;;;;;;;;;17.00;56.90;100240.91;5035528;28;1979;-53
2023/06/10 03:37:30;;;;;;;;;;;;;;;17.28;56.90;100239.28;5034802;28;1301;-52
2023/06/10 03:39:56;;;;;;;;;;;;;;;16.69;57.36;100232.91;5035061;28;1112;-55
2023/06/10 03:42:22;;;;;;;;;;;;;;;16.38;57.21;100242.22;5018993;28;2205;-53
2023/06/10 03:44:48;;;;;;;;;;;;;;;16.23;56.81;100229.41;5035228;28;1148;-54
2023/06/10 03:47:14;;;;;;;;;;;;;;;16.18;56.54;100232.19;5037649;28;1474;-55
2023/06/10 03:49:40;;;;;;;;;;;;;;;16.15;55.95;100224.53;5055730;28;1088;-55
2023/06/10 03:52:07;;;;;;;;;;;;;;;16.01;56.28;100229.81;5038410;28;1172;-54
2023/06/10 03:54:34;;;;;;;;;;;;;;;15.99;55.65;100229.31;5038176;28;1926;-52
2023/06/10 03:57:00;;;;;;;;;;;;;;;15.88;56.22;100227.72;5037928;28;1256;-56
2023/06/10 03:59:26;;;;;;;;;;;;;;;15.94;55.88;100228.50;5038214;28;1270;-57
2023/06/10 04:01:51;;;;;;;;;;;;;;;17.21;56.87;100233.31;5038258;28;1559;-58
2023/06/10 04:04:17;;;;;;;;;;;;;;;16.72;57.68;100233.16;5038263;28;1123;-51
2023/06/10 04:06:43;;;;;;;;;;;;;;;16.43;57.18;100230.38;5059492;28;1158;-54
2023/06/10 04:09:09;;;;;;;;;;;;;;;16.32;57.07;100220.59;5040689;28;1155;-51
2023/06/10 04:11:36;;;;;;;;;;;;;;;16.17;56.91;100219.59;5037839;28;1093;-50
2023/06/10 04:14:02;;;;;;;;;;;;;;;16.09;56.48;100231.16;5051745;28;1910;-52
2023/06/10 04:16:28;;;;;;;;;;;;;;;16.01;56.26;100227.09;5035141;28;1226;-52
2023/06/10 04:18:55;;;;;;;;;;;;;;;15.99;56.15;100218.34;5037925;28;1239;-48
2023/06/10 04:21:21;;;;;;;;;;;;;;;15.94;55.80;100223.03;5055559;28;1337;-48
2023/06/10 04:23:47;;;;;;;;;;;;;;;15.86;55.74;100227.97;5055766;28;1234;-48
2023/06/10 04:26:13;;;;;;;;;;;;;;;15.81;55.56;100228.03;5037652;28;1256;-49
2023/06/10 04:28:38;;;;;;;;;;;;;;;15.88;55.87;100224.97;5037743;28;1321;-48
2023/06/10 04:31:04;;;;;;;;;;;;;;;17.17;56.84;100222.06;5054998;28;1246;-51
2023/06/10 04:33:30;;;;;;;;;;;;;;;16.75;57.50;100231.78;5037488;28;1290;-49
2023/06/10 04:35:56;;;;;;;;;;;;;;;16.43;57.58;100227.63;5037594;28;1902;-51
2023/06/10 04:38:24;;;;;;;;;;;;;;;16.25;57.22;100229.13;5037399;28;1352;-48
2023/06/10 04:40:50;;;;;;;;;;;;;;;16.18;56.43;100220.41;5037508;28;1320;-51
2023/06/10 04:43:17;;;;;;;;;;;;;;;16.08;56.40;100230.31;5028414;28;1188;-52
2023/06/10 04:45:45;;;;;;;;;;;;;;;15.99;56.26;100233.94;5018390;28;1461;-49
2023/06/10 04:48:11;;;;;;;;;;;;;;;15.98;56.08;100233.13;5045719;28;1286;-49
2023/06/10 04:50:37;;;;;;;;;;;;;;;15.92;55.97;100228.75;5038370;28;1878;-52
2023/06/10 04:53:03;;;;;;;;;;;;;;;16.56;56.90;100231.66;5055473;28;1311;-48
2023/06/10 04:55:29;;;;;;;;;;;;;;;17.19;56.75;100233.56;5037434;28;1886;-53
2023/06/10 04:57:55;;;;;;;;;;;;;;;17.44;57.06;100229.72;5055804;28;1293;-54
2023/06/10 05:00:21;;;;;;;;;;;;;;;16.67;56.22;100235.94;5048826;28;1051;-51
2023/06/10 05:02:49;;;;;;;;;;;;;;;16.41;54.07;100236.16;5052997;28;896;-52
2023/06/10 05:05:18;;;;;;;;;;;;;;;16.29;52.34;100237.63;5055682;28;1142;-52
2023/06/10 05:07:43;;;;;;;;;;;;;;;16.17;51.40;100235.22;5037840;28;1045;-53
2023/06/10 05:10:09;;;;;;;;;;;;;;;16.16;50.53;100236.31;5055555;28;1083;-53
2023/06/10 05:12:35;;;;;;;;;;;;;;;16.01;50.28;100232.56;5055434;28;1148;-50
2023/06/10 05:15:01;;;;;;;;;;;;;;;16.36;51.16;100236.19;5037587;28;1918;-49
2023/06/10 05:17:27;;;;;;;;;;;;;;;16.45;51.82;100235.59;5055416;28;1246;-55
2023/06/10 05:19:52;;;;;;;;;;;;;;;16.20;51.24;100232.75;5055446;28;1106;-53
2023/06/10 05:22:18;;;;;;;;;;;;;;;16.25;49.82;100226.38;5057991;28;1291;-52
2023/06/10 05:24:44;;;;;;;;;;;;;;;16.14;49.43;100227.56;5058045;28;1049;-54
2023/06/10 05:27:10;;;;;;;;;;;;;;;16.08;49.12;100226.78;5053035;28;951;-53
2023/06/10 05:29:35;;;;;;;;;;;;;;;16.11;48.91;100231.69;5058785;28;1134;-52
2023/06/10 05:32:03;;;;;;;;;;;;;;;16.89;51.61;100220.97;5059439;28;1163;-53
2023/06/10 05:34:29;;;;;;;;;;;;;;;16.49;50.98;100231.16;5058871;28;1898;-55
2023/06/10 05:36:54;;;;;;;;;;;;;;;16.38;49.91;100225.75;5054581;28;1161;-53
2023/06/10 05:39:20;;;;;;;;;;;;;;;16.19;49.63;100222.84;5050169;28;1144;-55
2023/06/10 05:41:46;;;;;;;;;;;;;;;16.22;48.78;100218.72;5058665;28;1067;-53
2023/06/10 05:44:11;;;;;;;;;;;;;;;17.18;51.02;100217.38;5058239;28;1120;-52
2023/06/10 05:46:37;;;;;;;;;;;;;;;16.52;50.96;100216.84;5058527;28;1256;-53
2023/06/10 05:49:03;;;;;;;;;;;;;;;16.42;49.92;100215.84;5058169;28;1242;-53
2023/06/10 05:51:28;;;;;;;;;;;;;;;16.45;48.91;100219.13;5045016;28;1064;-53
2023/06/10 05:53:54;;;;;;;;;;;;;;;16.37;48.61;100218.63;5058478;28;1894;-55
2023/06/10 05:56:23;;;;;;;;;;;;;;;16.32;48.11;100212.34;5058977;28;1152;-51
2023/06/10 05:58:48;;;;;;;;;;;;;;;16.23;48.12;100209.41;5058443;28;1127;-54
2023/06/10 06:01:14;;;;;;;;;;;;;;;16.21;47.94;100214.34;5054836;28;1070;-53
2023/06/10 06:03:39;;;;;;;;;;;;;;;16.60;49.05;100210.75;5058048;28;1127;-49
2023/06/10 06:06:05;;;;;;;;;;;;;;;16.71;49.83;100206.81;5057526;28;1045;-54
2023/06/10 06:08:31;;;;;;;;;;;;;;;16.50;49.18;100211.66;5058630;28;1255;-54
2023/06/10 06:10:56;;;;;;;;;;;;;;;16.48;48.40;100215.78;5057343;28;1024;-58
2023/06/10 06:13:22;;;;;;;;;;;;;;;16.39;47.88;100199.13;5057594;28;1126;-55
2023/06/10 06:15:48;;;;;;;;;;;;;;;16.32;47.85;100199.44;5056778;28;1918;-54
2023/06/10 06:18:14;;;;;;;;;;;;;;;16.31;47.71;100191.50;5058405;28;1211;-57
2023/06/10 06:20:39;;;;;;;;;;;;;;;16.32;47.44;100191.22;5044689;28;1224;-57
2023/06/10 06:23:05;;;;;;;;;;;;;;;16.25;47.41;100193.47;5058140;28;1068;-57
2023/06/10 06:25:31;;;;;;;;;;;;;;;16.16;47.41;100195.16;5056939;28;1158;-57
2023/06/10 06:27:57;;;;;;;;;;;;;;;16.26;47.09;100195.13;5055693;28;1140;-57
2023/06/10 06:30:22;;;;;;;;;;;;;;;17.18;48.75;100192.66;5047788;28;978;-59
2023/06/10 06:32:48;;;;;;;;;;;;;;;16.66;48.91;100195.06;5057671;28;1102;-56
2023/06/10 06:35:13;;;;;;;;;;;;;;;16.50;48.84;100197.94;5057315;28;1909;-57
2023/06/10 06:37:39;;;;;;;;;;;;;;;16.45;48.43;100197.16;5057500;28;1134;-56
2023/06/10 06:40:19;;;;;;;;;;;;;;;16.29;48.20;100186.31;5028899;28;1317;-56
2023/06/10 06:42:44;;;;;;;;;;;;;;;17.20;48.67;100184.94;5055106;28;1095;-56
2023/06/10 06:45:30;;;;;;;;;;;;;;;16.71;49.12;100184.84;5044402;28;1491;-57
2023/06/10 06:47:56;;;;;;;;;;;;;;;16.65;48.55;100180.53;5055226;28;1200;-57
2023/06/10 06:50:21;;;;;;;;;;;;;;;16.55;48.26;100175.09;5052560;28;1107;-56
2023/06/10 06:52:47;;;;;;;;;;;;;;;16.51;47.72;100179.53;5046562;28;1240;-57
2023/06/10 06:55:13;;;;;;;;;;;;;;;16.40;47.88;100176.09;5055722;28;1938;-55
2023/06/10 06:57:38;;;;;;;;;;;;;;;16.43;47.49;100175.50;5045927;28;1153;-54
2023/06/10 07:00:04;;;;;;;;;;;;;;;16.38;47.52;100178.28;5055461;28;1020;-56
2023/06/10 07:02:31;;;;;;;;;;;;;;;16.39;47.33;100180.72;5055047;28;951;-51
2023/06/10 07:04:58;;;;;;;;;;;;;;;16.38;47.16;100165.41;5057052;28;1175;-56
2023/06/10 07:07:24;;;;;;;;;;;;;;;16.37;46.90;100173.91;5044245;28;1159;-55
2023/06/10 07:09:50;;;;;;;;;;;;;;;16.25;47.28;100166.03;5057610;28;1150;-55
2023/06/10 07:12:15;;;;;;;;;;;;;;;16.32;46.96;100160.22;5057100;28;1016;-56
2023/06/10 07:14:41;;;;;;;;;;;;;;;16.23;47.23;100154.53;5030505;28;1910;-55
2023/06/10 07:17:06;;;;;;;;;;;;;;;16.23;47.05;100155.34;5051754;28;1154;-56
2023/06/10 07:19:32;;;;;;;;;;;;;;;16.33;47.00;100157.19;5049786;28;1350;-58
2023/06/10 07:21:57;;;;;;;;;;;;;;;16.28;47.04;100159.97;5056827;28;1060;-57
2023/06/10 07:24:23;;;;;;;;;;;;;;;16.28;46.90;100159.16;5056996;28;1116;-58
2023/06/10 07:26:50;;;;;;;;;;;;;;;16.88;47.90;100153.41;5055662;28;1131;-56
2023/06/10 07:29:15;;;;;;;;;;;;;;;16.75;48.60;100161.19;5037875;28;1005;-55
2023/06/10 07:31:41;;;;;;;;;;;;;;;16.59;48.21;100157.78;5056820;28;1194;-53
2023/06/10 07:34:06;;;;;;;;;;;;;;;16.52;47.92;100157.31;5056602;28;1894;-57
2023/06/10 07:36:32;;;;;;;;;;;;;;;16.42;47.39;100160.13;5056187;28;1055;-57
2023/06/10 07:38:58;;;;;;;;;;;;;;;16.38;47.52;100162.66;5048623;28;889;-57
2023/06/10 07:41:24;;;;;;;;;;;;;;;16.33;47.54;100161.88;5037251;28;1157;-56
2023/06/10 07:43:54;;;;;;;;;;;;;;;16.39;47.01;100160.72;5056004;28;1202;-52
2023/06/10 07:46:20;;;;;;;;;;;;;;;16.36;47.09;100162.09;5051692;28;980;-54
2023/06/10 07:48:46;;;;;;;;;;;;;;;16.31;47.16;100170.38;5056000;28;1234;-55
2023/06/10 07:51:12;;;;;;;;;;;;;;;16.31;47.12;100156.66;5051419;28;1280;-55
2023/06/10 07:53:37;;;;;;;;;;;;;;;16.37;46.68;100158.25;5050120;28;1057;-50
2023/06/10 07:56:03;;;;;;;;;;;;;;;16.32;46.74;100158.28;5039114;28;1988;-51
2023/06/10 07:58:28;;;;;;;;;;;;;;;16.36;46.68;100169.53;5055305;28;1067;-54
2023/06/10 08:00:54;;;;;;;;;;;;;;;17.21;47.58;100154.44;5056036;28;1195;-55
2023/06/10 08:03:19;;;;;;;;;;;;;;;16.72;48.10;100161.78;5052087;28;1095;-55
2023/06/10 08:05:45;;;;;;;;;;;;;;;16.62;47.57;100152.81;5046677;28;1139;-54
2023/06/10 08:08:11;;;;;;;;;;;;;;;16.46;47.75;100155.72;5056492;28;1075;-57
2023/06/10 08:10:36;;;;;;;;;;;;;;;16.47;47.40;100146.38;5055841;28;1250;-57
2023/06/10 08:13:02;;;;;;;;;;;;;;;16.46;47.29;100144.72;5055608;28;1183;-56
2023/06/10 08:15:27;;;;;;;;;;;;;;;16.47;47.08;100137.34;5055209;28;1982;-57
2023/06/10 08:17:53;;;;;;;;;;;;;;;16.40;47.05;100135.72;5055559;28;1214;-57
2023/06/10 08:20:18;;;;;;;;;;;;;;;16.34;47.00;100147.03;5055547;28;1210;-57
2023/06/10 08:22:44;;;;;;;;;;;;;;;16.43;46.78;100140.63;5055720;28;1175;-57
2023/06/10 08:25:10;;;;;;;;;;;;;;;17.26;47.54;100139.81;5055877;28;1253;-57
2023/06/10 08:27:35;;;;;;;;;;;;;;;16.76;48.08;100134.59;5054886;28;1202;-57
2023/06/10 08:30:01;;;;;;;;;;;;;;;16.57;48.31;100145.47;5055417;28;1190;-57
2023/06/10 08:32:26;;;;;;;;;;;;;;;16.65;47.50;100147.59;5055722;28;1187;-56
2023/06/10 08:34:52;;;;;;;;;;;;;;;16.56;47.60;100146.56;5055287;28;1914;-57
2023/06/10 08:37:17;;;;;;;;;;;;;;;16.51;47.30;100141.13;5055461;28;1297;-57
2023/06/10 08:39:43;;;;;;;;;;;;;;;16.57;47.04;100143.53;5055528;28;1234;-59
2023/06/10 08:42:11;;;;;;;;;;;;;;;16.62;46.90;100145.44;5055375;28;1254;-58
2023/06/10 08:44:40;;;;;;;;;;;;;;;16.63;46.51;100146.22;5055614;28;1258;-57
2023/06/10 08:47:16;;;;;;;;;;;;;;;16.46;47.04;100138.44;5035316;28;1235;-55
2023/06/10 08:49:43;;;;;;;;;;;;;;;16.49;46.76;100149.63;5055264;28;1265;-58
2023/06/10 08:52:08;;;;;;;;;;;;;;;16.55;46.76;100142.19;5052602;28;1354;-57
2023/06/10 08:54:37;;;;;;;;;;;;;;;16.48;46.69;100136.22;5028681;28;1983;-56
2023/06/10 08:57:06;;;;;;;;;;;;;;;16.51;46.67;100135.63;5039387;28;1155;-56
2023/06/10 08:59:32;;;;;;;;;;;;;;;16.47;46.68;100129.91;5039998;28;1090;-57
2023/06/10 09:01:58;;;;;;;;;;;;;;;16.44;46.77;100130.50;5056319;28;1080;-57
2023/06/10 09:04:26;;;;;;;;;;;;;;;17.10;47.75;100123.50;5040618;28;1029;-57
2023/06/10 09:06:52;;;;;;;;;;;;;;;16.73;48.28;100126.91;5058060;28;1024;-60
2023/06/10 09:09:18;;;;;;;;;;;;;;;16.65;47.84;100125.63;5058960;28;1369;-51
2023/06/10 09:11:44;;;;;;;;;;;;;;;16.65;47.68;100120.13;5041921;28;1072;-54
2023/06/10 09:14:11;;;;;;;;;;;;;;;16.67;47.30;100122.59;5059225;28;1910;-54
2023/06/10 09:16:37;;;;;;;;;;;;;;;16.68;47.04;100118.75;5058666;28;1007;-55
2023/06/10 09:19:07;;;;;;;;;;;;;;;16.64;46.71;100113.00;5058906;28;1112;-55
2023/06/10 09:21:34;;;;;;;;;;;;;;;16.60;46.99;100111.94;5058969;28;1110;-57
2023/06/10 09:23:59;;;;;;;;;;;;;;;16.61;46.84;100110.84;5058826;28;1083;-48
2023/06/10 09:26:27;;;;;;;;;;;;;;;16.57;46.67;100118.81;5030750;28;1053;-53
2023/06/10 09:28:54;;;;;;;;;;;;;;;16.62;46.59;100119.88;5057157;28;870;-54
2023/06/10 09:31:21;;;;;;;;;;;;;;;16.54;46.67;100108.44;5041041;28;1244;-46
2023/06/10 09:33:47;;;;;;;;;;;;;;;16.48;46.56;100111.50;5058641;28;1071;-55
2023/06/10 09:36:21;;;;;;;;;;;;;;;16.57;46.49;100104.28;5056755;28;1906;-48
2023/06/10 09:38:46;;;;;;;;;;;;;;;16.50;46.48;100106.56;5057537;28;945;-57
2023/06/10 09:41:15;;;;;;;;;;;;;;;16.52;46.29;100109.81;5040252;28;1294;-51
2023/06/10 09:43:44;;;;;;;;;;;;;;;16.54;46.53;100085.66;5041611;28;1138;-54
2023/06/10 09:46:16;;;;;;;;;;;;;;;16.54;46.44;100102.13;5058399;28;1093;-54
2023/06/10 09:48:43;;;;;;;;;;;;;;;16.49;46.35;100100.25;5039276;28;1112;-53
2023/06/10 09:51:09;;;;;;;;;;;;;;;16.53;46.33;100101.31;5040339;28;1214;-55
2023/06/10 09:53:35;;;;;;;;;;;;;;;16.52;46.30;100107.09;5052294;28;1060;-50
2023/06/10 09:56:00;;;;;;;;;;;;;;;16.43;46.75;100099.47;5038604;28;1975;-49
2023/06/10 09:58:36;;;;;;;;;;;;;;;16.43;46.66;100087.69;5044412;28;1190;-48
2023/06/10 10:01:04;;;;;;;;;;;;;;;16.41;46.52;100098.97;5058153;28;1168;-49
2023/06/10 10:03:30;;;;;;;;;;;;;;;16.46;46.44;100094.53;5057753;28;1092;-49
2023/06/10 10:06:00;;;;;;;;;;;;;;;16.53;46.26;100109.53;5044180;28;1214;-48
2023/06/10 10:08:25;;;;;;;;;;;;;;;16.56;46.29;100099.91;5058229;28;1040;-52
2023/06/10 10:10:51;;;;;;;;;;;;;;;16.46;46.56;100105.50;5057691;28;1135;-51
2023/06/10 10:13:16;;;;;;;;;;;;;;;16.53;46.40;100095.00;5057787;28;1281;-48
2023/06/10 10:15:42;;;;;;;;;;;;;;;16.47;46.42;100093.44;5057347;28;1906;-52
2023/06/10 10:18:09;;;;;;;;;;;;;;;16.56;46.36;100097.16;5057627;28;964;-49
2023/06/10 10:20:34;;;;;;;;;;;;;;;16.49;46.47;100096.69;5057875;28;1235;-50
2023/06/10 10:23:02;;;;;;;;;;;;;;;16.50;46.33;100090.09;5039957;28;1159;-52
2023/06/10 10:25:29;;;;;;;;;;;;;;;16.49;46.34;100085.72;5057625;28;1126;-56
2023/06/10 10:27:56;;;;;;;;;;;;;;;16.47;46.50;100076.97;5039912;28;1135;-52
2023/06/10 10:30:22;;;;;;;;;;;;;;;16.55;46.35;100079.06;5040978;28;1004;-54
2023/06/10 10:32:58;;;;;;;;;;;;;;;16.57;46.05;100082.34;5029793;28;1079;-56
2023/06/10 10:35:24;;;;;;;;;;;;;;;16.52;46.34;100083.22;5057678;28;2012;-56
2023/06/10 10:37:51;;;;;;;;;;;;;;;16.53;46.60;100086.78;5039708;28;1072;-53
2023/06/10 10:40:16;;;;;;;;;;;;;;;16.48;46.54;100082.16;5034896;28;1056;-53
2023/06/10 10:42:42;;;;;;;;;;;;;;;16.50;46.24;100074.44;5048727;28;1115;-56
2023/06/10 10:45:08;;;;;;;;;;;;;;;16.50;46.25;100068.16;5034725;28;1045;-55
2023/06/10 10:47:34;;;;;;;;;;;;;;;16.47;46.29;100069.53;5031292;28;1203;-57
2023/06/10 10:49:59;;;;;;;;;;;;;;;16.54;46.26;100070.00;5053964;28;1291;-53
2023/06/10 10:52:26;;;;;;;;;;;;;;;16.43;46.48;100069.28;5056461;28;1615;-55
2023/06/10 10:54:52;;;;;;;;;;;;;;;16.43;46.58;100073.97;5056964;28;1913;-50
2023/06/10 10:57:19;;;;;;;;;;;;;;;16.57;46.38;100063.13;5057407;28;893;-55
2023/06/10 10:59:45;;;;;;;;;;;;;;;16.48;46.68;100065.69;5057647;28;1036;-56
2023/06/10 11:02:10;;;;;;;;;;;;;;;16.58;46.33;100059.28;5039008;28;1127;-57
2023/06/10 11:04:36;;;;;;;;;;;;;;;17.29;47.12;100056.78;5052422;28;1259;-51
2023/06/10 11:07:08;;;;;;;;;;;;;;;16.90;47.56;100050.44;5038612;28;1445;-55
2023/06/10 11:09:33;;;;;;;;;;;;;;;16.69;47.72;100033.34;5039155;28;1211;-54
2023/06/10 11:11:59;;;;;;;;;;;;;;;16.70;47.44;100056.94;5056908;28;1314;-54
2023/06/10 11:14:28;;;;;;;;;;;;;;;16.75;47.06;100059.63;5056709;28;1973;-52
2023/06/10 11:16:55;;;;;;;;;;;;;;;16.63;47.14;100050.97;5046411;28;918;-48
2023/06/10 11:19:38;;;;;;;;;;;;;;;16.65;46.82;100048.75;5024520;28;1501;-49
2023/06/10 11:22:05;;;;;;;;;;;;;;;16.65;46.54;100054.25;5057007;28;1214;-49
2023/06/10 11:24:31;;;;;;;;;;;;;;;16.68;46.61;100055.59;5056277;28;1429;-51
2023/06/10 11:27:19;;;;;;;;;;;;;;;16.53;46.63;100040.13;5056373;28;1152;-47
2023/06/10 11:29:57;;;;;;;;;;;;;;;16.69;46.22;100035.25;5056172;28;1199;-49
2023/06/10 11:32:23;;;;;;;;;;;;;;;16.65;46.35;100043.28;5055049;28;1171;-50
2023/06/10 11:34:52;;;;;;;;;;;;;;;16.63;46.47;100034.50;5051414;28;2003;-52
2023/06/10 11:37:18;;;;;;;;;;;;;;;16.73;46.00;100039.06;5056446;28;1231;-50
2023/06/10 11:39:43;;;;;;;;;;;;;;;16.63;46.30;100029.00;5037937;28;1274;-55
2023/06/10 11:42:09;;;;;;;;;;;;;;;16.68;46.26;100020.72;5050894;28;1243;-50
2023/06/10 11:44:37;;;;;;;;;;;;;;;16.66;46.52;100022.13;5056350;28;1234;-55
2023/06/10 11:47:03;;;;;;;;;;;;;;;16.57;46.51;100014.53;5056408;28;1218;-56
2023/06/10 11:49:29;;;;;;;;;;;;;;;16.68;46.14;100020.72;5051406;28;1024;-56
2023/06/10 11:51:54;;;;;;;;;;;;;;;16.63;46.53;100018.03;5037586;28;1045;-56
2023/06/10 11:54:21;;;;;;;;;;;;;;;16.63;46.29;100017.22;5056439;28;1906;-57
2023/06/10 11:56:48;;;;;;;;;;;;;;;16.61;46.56;100020.25;5056755;28;1138;-56
2023/06/10 11:59:13;;;;;;;;;;;;;;;16.60;46.55;100015.88;5055882;28;1055;-59
2023/06/10 12:01:43;;;;;;;;;;;;;;;16.58;46.57;100004.38;5056340;28;1249;-57
2023/06/10 12:04:09;;;;;;;;;;;;;;;16.48;46.57;99999.84;5055880;28;997;-58
2023/06/10 12:06:46;;;;;;;;;;;;;;;16.58;46.43;99990.66;5043479;28;1184;-59
2023/06/10 12:09:18;;;;;;;;;;;;;;;16.60;46.60;99999.41;5043124;28;1116;-58
2023/06/10 12:11:44;;;;;;;;;;;;;;;16.55;46.66;100002.19;5055784;28;1254;-57
2023/06/10 12:14:10;;;;;;;;;;;;;;;16.63;46.54;100001.56;5055998;28;1890;-56
2023/06/10 12:16:35;;;;;;;;;;;;;;;16.62;46.53;100008.19;5037042;28;1259;-58
2023/06/10 12:19:05;;;;;;;;;;;;;;;16.65;46.51;100004.00;5055175;28;1243;-58
2023/06/10 12:21:31;;;;;;;;;;;;;;;16.63;46.22;99987.84;5055513;28;1025;-58
2023/06/10 12:24:00;;;;;;;;;;;;;;;16.57;46.49;99986.28;5055572;28;1230;-58
2023/06/10 12:26:36;;;;;;;;;;;;;;;16.59;46.56;99989.53;5055204;28;1238;-57
2023/06/10 12:29:02;;;;;;;;;;;;;;;16.65;46.23;99982.06;5055641;28;1297;-57
2023/06/10 12:31:27;;;;;;;;;;;;;;;16.55;46.35;99988.47;5059310;28;1261;-59
2023/06/10 12:34:07;;;;;;;;;;;;;;;16.65;46.44;99977.41;5057640;28;1272;-57
2023/06/10 12:36:34;;;;;;;;;;;;;;;16.64;46.60;99977.69;5058838;28;1988;-57
2023/06/10 12:39:03;;;;;;;;;;;;;;;16.63;46.33;99968.63;5059317;28;1226;-57
2023/06/10 12:41:28;;;;;;;;;;;;;;;16.63;46.37;99963.13;5056946;28;1259;-51
2023/06/10 12:43:54;;;;;;;;;;;;;;;16.63;46.25;99973.31;5031611;28;1036;-58
2023/06/10 12:46:20;;;;;;;;;;;;;;;16.65;46.39;99971.91;5059874;28;1099;-58